Time;durP1;ratioP1;P1;durP2;ratioP2;P2;SDS_P1;SDS_P2;PMS_P1;PMS_P2;Temp;Humidity;BMP_temperature;BMP_pressure;BME280_temperature;BME280_humidity;BME280_pressure;Samples;Min_cycle;Max_cycle;Signal;HPM_P1;HPM_P2
2023/10/29 00:02:09;;;;;;;3.00;1.00;;;16.90;65.30;;;;;;5094062;28;20182;-60
2023/10/29 00:04:36;;;;;;;3.90;1.20;;;16.90;65.20;;;;;;5093692;28;20214;-62
2023/10/29 00:07:04;;;;;;;3.83;1.42;;;16.90;65.30;;;;;;5094057;28;20269;-62
2023/10/29 00:09:31;;;;;;;3.42;1.33;;;16.90;65.20;;;;;;5094255;28;20283;-63
2023/10/29 00:11:58;;;;;;;3.30;1.42;;;16.90;65.20;;;;;;5093520;28;20309;-63
2023/10/29 00:14:27;;;;;;;2.80;1.38;;;16.90;65.20;;;;;;5094043;28;20304;-62
2023/10/29 00:16:54;;;;;;;2.97;1.08;;;16.90;65.20;;;;;;5093555;28;20277;-63
2023/10/29 00:19:21;;;;;;;2.25;1.10;;;16.90;65.10;;;;;;5093479;28;20308;-63
2023/10/29 00:21:48;;;;;;;2.25;1.13;;;16.90;65.20;;;;;;5093700;28;20277;-62
2023/10/29 00:24:14;;;;;;;4.00;1.40;;;16.90;65.10;;;;;;5093757;28;20214;-61
2023/10/29 00:26:41;;;;;;;3.33;1.25;;;16.90;65.10;;;;;;5093303;28;20277;-59
2023/10/29 00:29:09;;;;;;;2.58;1.13;;;16.90;65.10;;;;;;5093830;28;20301;-61
2023/10/29 00:31:37;;;;;;;3.25;1.10;;;16.90;65.10;;;;;;5093661;28;20296;-61
2023/10/29 00:34:04;;;;;;;2.38;1.23;;;16.90;65.10;;;;;;5093091;28;20301;-61
2023/10/29 00:36:31;;;;;;;2.83;1.33;;;16.90;65.10;;;;;;5093325;28;20196;-62
2023/10/29 00:38:58;;;;;;;5.50;1.65;;;16.90;65.10;;;;;;5093214;28;20248;-61
2023/10/29 00:41:26;;;;;;;2.38;1.30;;;16.90;65.00;;;;;;5093099;28;20190;-62
2023/10/29 00:43:53;;;;;;;4.32;1.40;;;16.90;65.00;;;;;;5093015;28;20214;-60
2023/10/29 00:46:20;;;;;;;3.55;1.45;;;16.90;65.00;;;;;;5093335;28;20218;-60
2023/10/29 00:48:49;;;;;;;4.75;1.40;;;16.90;65.00;;;;;;5092844;28;20300;-63
2023/10/29 00:51:19;;;;;;;5.20;1.40;;;16.90;65.00;;;;;;5093260;28;20221;-61
2023/10/29 00:53:47;;;;;;;4.65;1.50;;;16.90;65.00;;;;;;5093222;28;20306;-61
2023/10/29 00:56:18;;;;;;;5.40;1.52;;;16.90;65.00;;;;;;5092791;28;20251;-61
2023/10/29 00:58:46;;;;;;;6.18;1.60;;;16.90;65.00;;;;;;5093318;28;20213;-62
2023/10/29 01:01:13;;;;;;;2.60;1.30;;;16.90;65.00;;;;;;5093038;28;20276;-62
2023/10/29 01:03:41;;;;;;;4.28;1.10;;;16.90;65.00;;;;;;5092598;28;20892;-59
2023/10/29 01:06:10;;;;;;;4.90;1.30;;;16.90;65.00;;;;;;5092672;28;20222;-60
2023/10/29 01:08:37;;;;;;;4.88;1.60;;;16.90;65.00;;;;;;5093202;28;20301;-62
2023/10/29 01:11:05;;;;;;;4.97;1.30;;;16.90;65.70;;;;;;5092448;28;20218;-61
2023/10/29 01:13:33;;;;;;;5.40;1.98;;;16.90;64.90;;;;;;5092632;28;20706;-59
2023/10/29 01:16:00;;;;;;;6.25;1.58;;;16.90;64.90;;;;;;5092907;28;20286;-61
2023/10/29 01:18:27;;;;;;;4.97;1.40;;;16.90;64.90;;;;;;5092370;28;20300;-60
2023/10/29 01:20:54;;;;;;;5.03;1.20;;;16.90;64.90;;;;;;5092636;28;20277;-60
2023/10/29 01:23:23;;;;;;;4.35;1.42;;;16.90;64.90;;;;;;5092557;28;20300;-61
2023/10/29 01:25:50;;;;;;;3.97;1.20;;;16.90;64.90;;;;;;5092019;28;20224;-59
2023/10/29 01:28:17;;;;;;;4.47;1.40;;;16.90;64.90;;;;;;5092597;28;20214;-60
2023/10/29 01:30:44;;;;;;;5.63;1.52;;;16.90;64.80;;;;;;5092288;28;20277;-62
2023/10/29 01:33:11;;;;;;;5.10;1.63;;;16.90;64.80;;;;;;5092107;28;20234;-61
2023/10/29 01:35:38;;;;;;;4.18;1.20;;;16.90;64.80;;;;;;5092529;28;20188;-62
2023/10/29 01:38:05;;;;;;;4.15;1.40;;;16.90;64.80;;;;;;5092271;28;20221;-60
2023/10/29 01:40:33;;;;;;;5.13;1.50;;;16.90;64.70;;;;;;5092195;28;20200;-62
2023/10/29 01:43:00;;;;;;;2.47;1.20;;;16.90;64.70;;;;;;5092435;28;20268;-61
2023/10/29 01:45:27;;;;;;;3.72;1.35;;;16.90;64.70;;;;;;5092074;28;20285;-59
2023/10/29 01:47:54;;;;;;;5.15;1.42;;;16.90;64.70;;;;;;5091969;28;20273;-60
2023/10/29 01:50:22;;;;;;;5.70;1.45;;;16.90;64.70;;;;;;5092380;28;20193;-60
2023/10/29 01:52:49;;;;;;;4.45;1.30;;;16.90;64.60;;;;;;5092222;28;20586;-62
2023/10/29 01:55:16;;;;;;;5.93;1.45;;;16.90;64.60;;;;;;5092121;28;20222;-60
2023/10/29 01:57:44;;;;;;;3.33;1.10;;;16.90;64.60;;;;;;5092296;28;20269;-60
2023/10/29 02:00:13;;;;;;;2.90;1.27;;;16.80;64.40;;;;;;5092267;28;20253;-63
2023/10/29 02:02:40;;;;;;;3.03;1.10;;;16.80;64.50;;;;;;5094924;28;20182;-60
2023/10/29 02:05:08;;;;;;;4.05;1.20;;;16.80;64.40;;;;;;5096531;28;20302;-61
2023/10/29 02:07:35;;;;;;;4.25;1.42;;;16.80;64.40;;;;;;5096099;28;20735;-62
2023/10/29 02:10:02;;;;;;;4.20;1.20;;;16.80;64.30;;;;;;5096173;28;20225;-61
2023/10/29 02:12:29;;;;;;;5.18;1.60;;;16.80;64.30;;;;;;5096206;28;20210;-60
2023/10/29 02:14:57;;;;;;;2.38;1.10;;;16.80;64.30;;;;;;5095872;28;20780;-60
2023/10/29 02:17:27;;;;;;;3.60;1.13;;;16.90;64.30;;;;;;5095590;28;20187;-58
2023/10/29 02:19:55;;;;;;;3.42;1.25;;;16.80;64.20;;;;;;5096405;28;20225;-61
2023/10/29 02:22:24;;;;;;;3.47;1.05;;;16.80;64.20;;;;;;5095790;28;20643;-61
2023/10/29 02:24:51;;;;;;;5.28;1.70;;;16.90;64.30;;;;;;5095736;28;20210;-62
2023/10/29 02:27:18;;;;;;;4.45;1.40;;;16.80;64.20;;;;;;5096079;28;20186;-62
2023/10/29 02:29:45;;;;;;;2.85;1.40;;;16.80;64.10;;;;;;5095549;28;20305;-62
2023/10/29 02:32:12;;;;;;;2.97;1.30;;;16.80;64.10;;;;;;5095571;28;20218;-59
2023/10/29 02:34:39;;;;;;;4.03;1.20;;;16.80;64.00;;;;;;5095840;28;20641;-61
2023/10/29 02:37:06;;;;;;;5.68;1.52;;;16.80;64.00;;;;;;5095244;28;20698;-62
2023/10/29 02:39:35;;;;;;;3.70;1.35;;;16.80;64.00;;;;;;5095399;28;20246;-58
2023/10/29 02:42:02;;;;;;;2.50;1.33;;;16.80;64.00;;;;;;5095827;28;20640;-60
2023/10/29 02:44:29;;;;;;;4.13;1.30;;;16.80;64.00;;;;;;5095681;28;20296;-62
2023/10/29 02:46:56;;;;;;;2.30;1.10;;;16.80;64.80;;;;;;5095563;28;20190;-60
2023/10/29 02:49:23;;;;;;;2.70;1.30;;;16.80;63.90;;;;;;5095671;28;20297;-63
2023/10/29 02:51:50;;;;;;;2.97;1.30;;;16.80;63.90;;;;;;5095472;28;20301;-61
2023/10/29 02:54:17;;;;;;;5.10;1.40;;;16.80;63.90;;;;;;5095168;28;20699;-60
2023/10/29 02:56:45;;;;;;;3.45;1.20;;;16.80;63.90;;;;;;5095197;28;20559;-61
2023/10/29 02:59:12;;;;;;;3.33;1.35;;;16.80;63.80;;;;;;5095341;28;20218;-61
2023/10/29 03:01:39;;;;;;;5.03;1.45;;;16.80;63.90;;;;;;5095085;28;20270;-60
2023/10/29 03:04:06;;;;;;;6.43;1.40;;;16.80;63.80;;;;;;5094822;28;20297;-61
2023/10/29 03:06:35;;;;;;;4.47;1.33;;;16.80;63.80;;;;;;5095275;28;20233;-59
2023/10/29 03:09:03;;;;;;;2.33;1.30;;;16.80;63.80;;;;;;5094964;28;20213;-60
2023/10/29 03:11:30;;;;;;;4.15;1.35;;;16.80;63.70;;;;;;5094721;28;20584;-62
2023/10/29 03:13:59;;;;;;;5.88;1.40;;;16.80;63.80;;;;;;5094789;28;20225;-62
2023/10/29 03:16:26;;;;;;;3.58;1.25;;;16.80;63.70;;;;;;5095248;28;20197;-61
2023/10/29 03:18:53;;;;;;;5.10;1.65;;;16.70;63.50;;;;;;5094537;28;20216;-61
2023/10/29 03:21:20;;;;;;;3.97;1.20;;;16.80;63.70;;;;;;5094987;28;20277;-62
2023/10/29 03:23:47;;;;;;;3.13;1.48;;;16.70;63.50;;;;;;5094584;28;20226;-63
2023/10/29 03:26:14;;;;;;;3.78;1.40;;;16.70;63.50;;;;;;5094563;28;20186;-61
2023/10/29 03:28:42;;;;;;;6.00;1.63;;;16.70;63.50;;;;;;5094436;28;20763;-60
2023/10/29 03:31:15;;;;;;;4.20;1.27;;;16.70;63.50;;;;;;5094870;28;20196;-63
2023/10/29 03:33:42;;;;;;;4.57;1.50;;;16.80;63.60;;;;;;5093856;28;20321;-61
2023/10/29 03:36:10;;;;;;;7.03;1.70;;;16.80;63.60;;;;;;5094703;28;20273;-59
2023/10/29 03:38:36;;;;;;;2.80;1.35;;;16.80;63.50;;;;;;5094296;28;20655;-61
2023/10/29 03:41:04;;;;;;;4.78;1.50;;;16.70;63.40;;;;;;5093955;28;20194;-60
2023/10/29 03:43:31;;;;;;;4.32;1.40;;;16.70;63.40;;;;;;5094148;28;20718;-61
2023/10/29 03:45:59;;;;;;;6.40;2.00;;;16.80;63.50;;;;;;5094215;28;20277;-60
2023/10/29 03:48:28;;;;;;;4.80;1.58;;;16.80;63.50;;;;;;5094204;28;20186;-61
2023/10/29 03:50:55;;;;;;;3.67;1.73;;;16.70;63.40;;;;;;5094068;28;20565;-60
2023/10/29 03:53:22;;;;;;;6.78;1.45;;;16.70;63.30;;;;;;5094183;28;20284;-63
2023/10/29 03:55:51;;;;;;;3.75;1.30;;;16.80;63.40;;;;;;5094150;28;20193;-63
2023/10/29 03:58:18;;;;;;;4.30;1.58;;;16.70;63.30;;;;;;5094195;28;20190;-62
2023/10/29 04:00:51;;;;;;;6.20;1.98;;;16.80;63.40;;;;;;5094228;28;20193;-61
2023/10/29 04:03:18;;;;;;;6.50;1.40;;;16.70;63.30;;;;;;5093377;28;20186;-61
2023/10/29 04:05:47;;;;;;;4.85;1.70;;;16.70;63.20;;;;;;5094148;28;20183;-61
2023/10/29 04:08:14;;;;;;;7.47;1.67;;;16.80;63.30;;;;;;5094021;28;20269;-61
2023/10/29 04:10:41;;;;;;;3.90;1.70;;;16.70;63.20;;;;;;5093844;28;20195;-61
2023/10/29 04:13:08;;;;;;;4.88;1.30;;;16.70;63.20;;;;;;5093855;28;20297;-59
2023/10/29 04:15:35;;;;;;;7.90;1.98;;;16.70;63.20;;;;;;5093811;28;20301;-62
2023/10/29 04:18:02;;;;;;;7.18;1.35;;;16.70;63.20;;;;;;5093560;28;20213;-62
2023/10/29 04:20:29;;;;;;;3.72;1.35;;;16.70;63.10;;;;;;5094027;28;20287;-62
2023/10/29 04:22:57;;;;;;;4.38;1.60;;;16.80;63.20;;;;;;5093792;28;20190;-61
2023/10/29 04:25:24;;;;;;;4.72;1.55;;;16.70;63.00;;;;;;5093013;28;20314;-61
2023/10/29 04:27:51;;;;;;;6.93;1.55;;;16.70;63.00;;;;;;5093676;28;20280;-60
2023/10/29 04:30:18;;;;;;;4.18;1.50;;;16.70;63.20;;;;;;5093611;28;20301;-59
2023/10/29 04:32:45;;;;;;;7.47;2.00;;;16.70;63.00;;;;;;5093126;28;20308;-61
2023/10/29 04:35:12;;;;;;;8.15;1.90;;;16.70;63.00;;;;;;5093371;28;20276;-60
2023/10/29 04:37:39;;;;;;;3.35;1.30;;;16.70;62.80;;;;;;5093309;28;20257;-60
2023/10/29 04:40:09;;;;;;;4.75;1.60;;;16.70;62.80;;;;;;5092811;28;20217;-62
2023/10/29 04:42:36;;;;;;;5.63;1.65;;;16.70;62.80;;;;;;5093707;28;20194;-63
2023/10/29 04:45:03;;;;;;;6.60;1.92;;;16.70;62.70;;;;;;5093595;28;20305;-61
2023/10/29 04:47:30;;;;;;;5.13;1.60;;;16.70;62.60;;;;;;5093008;28;20602;-62
2023/10/29 04:49:57;;;;;;;6.00;1.40;;;16.70;62.60;;;;;;5093123;28;20304;-60
2023/10/29 04:52:24;;;;;;;3.85;1.60;;;16.70;63.40;;;;;;5092862;28;20742;-59
2023/10/29 04:54:51;;;;;;;4.25;1.58;;;16.70;62.50;;;;;;5092790;28;20218;-62
2023/10/29 04:57:21;;;;;;;5.00;1.77;;;16.70;62.50;;;;;;5093337;28;20272;-62
2023/10/29 04:59:49;;;;;;;5.28;1.70;;;16.70;62.50;;;;;;5092892;28;20589;-61
2023/10/29 05:02:16;;;;;;;4.28;1.58;;;16.70;62.50;;;;;;5092414;28;20651;-60
2023/10/29 05:04:43;;;;;;;6.53;1.50;;;16.70;62.50;;;;;;5092593;28;20239;-60
2023/10/29 05:07:10;;;;;;;5.32;1.70;;;16.70;62.50;;;;;;5093012;28;20266;-62
2023/10/29 05:09:37;;;;;;;5.05;1.77;;;16.70;62.50;;;;;;5092298;28;20687;-60
2023/10/29 05:12:05;;;;;;;7.72;1.95;;;16.70;62.50;;;;;;5092942;28;20269;-60
2023/10/29 05:14:33;;;;;;;7.72;1.95;;;16.70;62.50;;;;;;5092908;28;20249;-62
2023/10/29 05:17:00;;;;;;;8.75;1.77;;;16.70;62.50;;;;;;5092159;28;20182;-62
2023/10/29 05:19:27;;;;;;;12.10;2.10;;;16.70;62.50;;;;;;5092482;28;20749;-60
2023/10/29 05:21:54;;;;;;;5.90;1.77;;;16.70;62.50;;;;;;5092857;28;20277;-60
2023/10/29 05:24:22;;;;;;;6.55;1.80;;;16.70;62.50;;;;;;5092371;28;20654;-62
2023/10/29 05:26:49;;;;;;;7.50;2.00;;;16.70;62.50;;;;;;5092928;28;20194;-61
2023/10/29 05:29:17;;;;;;;6.32;2.13;;;16.70;62.50;;;;;;5092640;28;20225;-60
2023/10/29 05:31:45;;;;;;;4.93;1.60;;;16.70;62.50;;;;;;5092525;28;20198;-62
2023/10/29 05:34:14;;;;;;;7.20;1.77;;;16.70;62.50;;;;;;5092178;28;20316;-62
2023/10/29 05:36:42;;;;;;;8.27;2.03;;;16.70;62.50;;;;;;5092565;28;20182;-60
2023/10/29 05:39:09;;;;;;;8.32;2.05;;;16.70;62.50;;;;;;5091899;28;20298;-62
2023/10/29 05:41:36;;;;;;;6.45;2.03;;;16.70;62.50;;;;;;5092515;28;20260;-62
2023/10/29 05:44:03;;;;;;;7.95;2.38;;;16.70;62.50;;;;;;5092332;28;20407;-60
2023/10/29 05:46:30;;;;;;;9.45;1.80;;;16.70;62.50;;;;;;5094517;28;20683;-63
2023/10/29 05:49:01;;;;;;;8.45;2.08;;;16.70;62.50;;;;;;5101175;28;20320;-60
2023/10/29 05:51:28;;;;;;;7.10;1.70;;;16.70;62.50;;;;;;5104711;28;20288;-62
2023/10/29 05:53:55;;;;;;;6.07;2.10;;;16.70;62.50;;;;;;5111938;28;20315;-60
2023/10/29 05:56:22;;;;;;;9.05;1.92;;;16.70;62.50;;;;;;5094694;28;20276;-60
2023/10/29 05:58:49;;;;;;;5.95;1.63;;;16.70;62.50;;;;;;5092348;28;20190;-62
2023/10/29 06:01:17;;;;;;;3.83;1.63;;;16.70;62.50;;;;;;5091635;28;20803;-60
2023/10/29 06:03:44;;;;;;;7.18;1.92;;;16.70;62.50;;;;;;5092118;28;20284;-62
2023/10/29 06:06:12;;;;;;;7.18;2.03;;;16.70;63.30;;;;;;5092011;28;20281;-62
2023/10/29 06:08:39;;;;;;;7.15;1.88;;;16.70;62.50;;;;;;5091562;28;20277;-60
2023/10/29 06:11:06;;;;;;;7.85;1.88;;;16.70;62.50;;;;;;5092259;28;20276;-61
2023/10/29 06:13:33;;;;;;;6.15;2.50;;;16.70;62.50;;;;;;5092163;28;20225;-62
2023/10/29 06:16:00;;;;;;;5.45;2.05;;;16.70;62.50;;;;;;5091688;28;20265;-61
2023/10/29 06:18:27;;;;;;;6.80;1.60;;;16.70;62.50;;;;;;5091834;28;20582;-61
2023/10/29 06:20:54;;;;;;;8.10;2.03;;;16.70;62.50;;;;;;5092349;28;20301;-61
2023/10/29 06:23:22;;;;;;;7.80;2.45;;;16.70;62.50;;;;;;5091725;28;20218;-61
2023/10/29 06:25:49;;;;;;;3.50;1.63;;;16.70;62.50;;;;;;5092311;28;20570;-61
2023/10/29 06:28:16;;;;;;;5.95;1.60;;;16.70;62.50;;;;;;5092088;28;20688;-61
2023/10/29 06:30:44;;;;;;;8.10;2.00;;;16.70;62.50;;;;;;5091635;28;20260;-60
2023/10/29 06:33:11;;;;;;;5.50;1.58;;;16.70;62.50;;;;;;5091910;28;20213;-60
2023/10/29 06:35:40;;;;;;;7.90;1.95;;;16.70;62.50;;;;;;5091897;28;20210;-61
2023/10/29 06:38:07;;;;;;;9.10;2.10;;;16.70;62.50;;;;;;5091365;28;20230;-61
2023/10/29 06:40:35;;;;;;;5.25;1.70;;;16.70;62.50;;;;;;5092061;28;20214;-62
2023/10/29 06:43:03;;;;;;;7.45;1.80;;;16.70;62.50;;;;;;5091502;28;20616;-60
2023/10/29 06:45:30;;;;;;;7.45;1.80;;;16.70;62.50;;;;;;5091322;28;20214;-61
2023/10/29 06:47:57;;;;;;;4.80;1.67;;;16.70;62.50;;;;;;5093136;28;20280;-62
2023/10/29 06:50:24;;;;;;;6.78;1.65;;;16.70;62.50;;;;;;5095512;28;20214;-62
2023/10/29 06:52:51;;;;;;;10.38;1.80;;;16.70;62.50;;;;;;5095082;28;20273;-60
2023/10/29 06:55:18;;;;;;;9.50;1.90;;;16.70;63.30;;;;;;5095697;28;20296;-61
2023/10/29 06:57:49;;;;;;;9.63;2.35;;;16.70;62.50;;;;;;5095580;28;20269;-63
2023/10/29 07:00:17;;;;;;;8.38;2.00;;;16.70;62.50;;;;;;5095181;28;20218;-58
2023/10/29 07:02:44;;;;;;;7.38;1.98;;;16.70;62.50;;;;;;5095001;28;20628;-62
2023/10/29 07:05:11;;;;;;;9.45;1.92;;;16.70;62.50;;;;;;5095621;28;20221;-59
2023/10/29 07:07:38;;;;;;;7.10;1.70;;;16.60;62.40;;;;;;5094901;28;20240;-62
2023/10/29 07:10:06;;;;;;;7.05;1.85;;;16.70;62.50;;;;;;5095040;28;20320;-61
2023/10/29 07:12:33;;;;;;;6.82;1.70;;;16.70;62.50;;;;;;5094810;28;20543;-61
2023/10/29 07:15:01;;;;;;;7.47;1.85;;;16.70;62.50;;;;;;5094873;28;20316;-63
2023/10/29 07:17:28;;;;;;;4.97;1.75;;;16.70;62.50;;;;;;5095258;28;20193;-62
2023/10/29 07:19:55;;;;;;;7.40;2.28;;;16.70;62.50;;;;;;5095157;28;20301;-61
2023/10/29 07:22:22;;;;;;;6.65;1.88;;;16.70;62.50;;;;;;5094555;28;20186;-62
2023/10/29 07:24:49;;;;;;;5.50;1.83;;;16.70;62.50;;;;;;5094973;28;20300;-59
2023/10/29 07:27:16;;;;;;;8.25;1.80;;;16.70;62.50;;;;;;5094638;28;20648;-61
2023/10/29 07:29:43;;;;;;;5.72;1.67;;;16.70;62.50;;;;;;5094446;28;20226;-62
2023/10/29 07:32:12;;;;;;;6.68;1.58;;;16.70;62.50;;;;;;5094554;28;20182;-60
2023/10/29 07:34:39;;;;;;;6.30;2.17;;;16.70;62.50;;;;;;5094377;28;20729;-61
2023/10/29 07:37:06;;;;;;;4.75;1.67;;;16.70;62.50;;;;;;5093850;28;20277;-60
2023/10/29 07:39:33;;;;;;;4.38;1.60;;;16.60;62.40;;;;;;5094286;28;20723;-60
2023/10/29 07:42:02;;;;;;;8.80;2.40;;;16.70;62.50;;;;;;5094852;28;20194;-63
2023/10/29 07:44:29;;;;;;;7.32;2.00;;;16.70;63.30;;;;;;5094131;28;20218;-61
2023/10/29 07:46:56;;;;;;;10.15;1.90;;;16.70;62.50;;;;;;5094474;28;20186;-61
2023/10/29 07:49:24;;;;;;;7.97;2.25;;;16.70;62.50;;;;;;5094464;28;20578;-61
2023/10/29 07:51:51;;;;;;;11.30;2.08;;;16.70;62.50;;;;;;5094082;28;20241;-59
2023/10/29 07:54:18;;;;;;;7.00;2.15;;;16.70;62.50;;;;;;5094368;28;20329;-62
2023/10/29 07:56:45;;;;;;;8.60;1.80;;;16.70;62.50;;;;;;5094175;28;20273;-61
2023/10/29 07:59:12;;;;;;;5.45;1.70;;;16.70;62.50;;;;;;5092858;28;20232;-60
2023/10/29 08:01:39;;;;;;;6.07;1.92;;;16.70;62.50;;;;;;5094276;28;20186;-59
2023/10/29 08:04:07;;;;;;;9.57;2.08;;;16.70;62.50;;;;;;5094123;28;20563;-62
2023/10/29 08:06:36;;;;;;;5.80;1.73;;;16.70;62.50;;;;;;5093837;28;20197;-59
2023/10/29 08:09:03;;;;;;;4.28;1.55;;;16.70;62.50;;;;;;5094002;28;20313;-62
2023/10/29 08:11:30;;;;;;;6.15;1.80;;;16.60;62.40;;;;;;5094025;28;20273;-61
2023/10/29 08:13:57;;;;;;;4.95;1.60;;;16.70;62.50;;;;;;5093054;28;20561;-58
2023/10/29 08:16:25;;;;;;;4.70;1.80;;;16.70;62.50;;;;;;5093621;28;20762;-59
2023/10/29 08:18:52;;;;;;;4.72;1.55;;;16.70;62.50;;;;;;5093850;28;20186;-62
2023/10/29 08:21:19;;;;;;;4.65;1.70;;;16.70;62.50;;;;;;5093709;28;20320;-60
2023/10/29 08:23:47;;;;;;;3.85;1.60;;;16.70;62.50;;;;;;5093820;28;20251;-61
2023/10/29 08:26:14;;;;;;;5.05;1.80;;;16.60;62.40;;;;;;5093647;28;20643;-63
2023/10/29 08:28:41;;;;;;;5.13;1.45;;;16.60;62.40;;;;;;5093365;28;20202;-60
2023/10/29 08:31:08;;;;;;;8.57;1.65;;;16.60;62.40;;;;;;5093532;28;20220;-60
2023/10/29 08:33:35;;;;;;;5.50;1.55;;;16.60;63.00;;;;;;5093494;28;20582;-62
2023/10/29 08:36:02;;;;;;;4.68;1.73;;;16.60;62.40;;;;;;5093385;28;20301;-60
2023/10/29 08:38:29;;;;;;;4.30;1.60;;;16.60;62.40;;;;;;5093415;28;20236;-62
2023/10/29 08:40:58;;;;;;;3.28;1.70;;;16.60;62.40;;;;;;5093431;28;20241;-62
2023/10/29 08:43:25;;;;;;;3.95;1.48;;;16.60;62.40;;;;;;5092699;28;20675;-60
2023/10/29 08:45:52;;;;;;;6.80;1.83;;;16.60;62.40;;;;;;5093535;28;20218;-60
2023/10/29 08:48:19;;;;;;;6.07;1.42;;;16.70;62.50;;;;;;5093354;28;20269;-61
2023/10/29 08:50:46;;;;;;;4.72;1.58;;;16.70;62.50;;;;;;5092756;28;20700;-60
2023/10/29 08:53:13;;;;;;;2.85;1.42;;;16.60;62.40;;;;;;5093196;28;20269;-63
2023/10/29 08:55:40;;;;;;;3.58;1.60;;;16.60;62.40;;;;;;5093254;28;20261;-61
2023/10/29 08:58:11;;;;;;;6.20;1.73;;;16.60;62.40;;;;;;5093010;28;20222;-63
2023/10/29 09:00:40;;;;;;;4.63;1.80;;;16.70;62.50;;;;;;5093156;28;20296;-61
2023/10/29 09:03:07;;;;;;;2.90;1.65;;;16.60;62.40;;;;;;5093008;28;20189;-62
2023/10/29 09:05:35;;;;;;;5.10;1.50;;;16.60;62.40;;;;;;5092761;28;20249;-61
2023/10/29 09:08:02;;;;;;;7.57;2.08;;;16.60;62.40;;;;;;5093046;28;20216;-59
2023/10/29 09:10:30;;;;;;;6.38;1.45;;;16.60;62.40;;;;;;5092868;28;20316;-60
2023/10/29 09:12:56;;;;;;;3.67;1.30;;;16.70;62.50;;;;;;5092186;28;20656;-61
2023/10/29 09:15:25;;;;;;;5.05;1.65;;;16.60;62.40;;;;;;5092922;28;20233;-61
2023/10/29 09:17:52;;;;;;;3.85;1.30;;;16.60;62.40;;;;;;5092839;28;20251;-60
2023/10/29 09:20:20;;;;;;;3.90;1.30;;;16.60;62.40;;;;;;5092510;28;20214;-61
2023/10/29 09:22:47;;;;;;;5.22;1.65;;;16.60;62.40;;;;;;5092682;28;20190;-62
2023/10/29 09:25:14;;;;;;;6.07;1.58;;;16.60;62.40;;;;;;5092756;28;20210;-61
2023/10/29 09:27:42;;;;;;;7.18;1.55;;;16.60;62.40;;;;;;5092476;28;20219;-60
2023/10/29 09:30:10;;;;;;;3.20;1.20;;;16.60;62.40;;;;;;5092341;28;20579;-61
2023/10/29 09:32:38;;;;;;;2.67;1.40;;;16.60;62.40;;;;;;5092554;28;20277;-59
2023/10/29 09:35:07;;;;;;;5.55;1.80;;;16.60;62.40;;;;;;5092290;28;20316;-61
2023/10/29 09:37:34;;;;;;;4.07;1.55;;;16.60;62.40;;;;;;5092354;28;20222;-61
2023/10/29 09:40:03;;;;;;;5.68;2.10;;;16.60;62.40;;;;;;5092421;28;20632;-62
2023/10/29 09:42:32;;;;;;;4.60;1.40;;;16.60;62.40;;;;;;5092482;28;20255;-62
2023/10/29 09:45:00;;;;;;;4.80;1.77;;;16.60;62.40;;;;;;5092553;28;20225;-62
2023/10/29 09:47:28;;;;;;;3.97;2.25;;;16.60;63.20;;;;;;5092427;28;20219;-61
2023/10/29 09:49:58;;;;;;;5.30;1.83;;;16.60;62.40;;;;;;5091671;28;20228;-61
2023/10/29 09:52:29;;;;;;;3.85;1.70;;;16.60;62.40;;;;;;5092461;28;20194;-61
2023/10/29 09:54:58;;;;;;;5.47;1.63;;;16.60;62.40;;;;;;5092097;28;20848;-60
2023/10/29 09:57:25;;;;;;;5.25;1.80;;;16.60;62.40;;;;;;5091685;28;20201;-60
2023/10/29 09:59:52;;;;;;;4.38;1.30;;;16.60;62.40;;;;;;5091999;28;20217;-60
2023/10/29 10:02:19;;;;;;;4.22;1.35;;;16.60;62.40;;;;;;5092000;28;20532;-62
2023/10/29 10:04:48;;;;;;;4.80;1.70;;;16.60;62.40;;;;;;5091975;28;20291;-59
2023/10/29 10:07:17;;;;;;;4.38;1.30;;;16.60;62.40;;;;;;5092236;28;20277;-61
2023/10/29 10:09:54;;;;;;;3.40;1.48;;;16.60;62.40;;;;;;5092202;28;20217;-59
2023/10/29 10:12:21;;;;;;;5.03;1.40;;;16.70;62.50;;;;;;5091917;28;20277;-60
2023/10/29 10:14:49;;;;;;;2.92;1.23;;;16.60;62.40;;;;;;5091859;28;20234;-61
2023/10/29 10:17:16;;;;;;;3.38;1.35;;;16.60;62.40;;;;;;5091839;28;20186;-60
2023/10/29 10:19:43;;;;;;;2.75;1.20;;;16.60;62.40;;;;;;5091552;28;20304;-62
2023/10/29 10:22:10;;;;;;;4.72;1.25;;;16.60;62.40;;;;;;5092517;28;20186;-61
2023/10/29 10:24:40;;;;;;;3.63;1.67;;;16.60;62.40;;;;;;5095753;28;20304;-62
2023/10/29 10:27:09;;;;;;;3.35;1.38;;;16.60;62.40;;;;;;5095790;28;20193;-62
2023/10/29 10:29:36;;;;;;;6.25;1.50;;;16.60;62.40;;;;;;5095634;28;20678;-60
2023/10/29 10:32:05;;;;;;;6.25;1.45;;;16.60;62.40;;;;;;5095920;28;20277;-62
2023/10/29 10:34:33;;;;;;;4.40;1.80;;;16.60;62.40;;;;;;5095430;28;20301;-59
2023/10/29 10:37:02;;;;;;;4.82;1.35;;;16.60;62.40;;;;;;5095902;28;20206;-61
2023/10/29 10:39:32;;;;;;;3.20;1.17;;;16.60;62.40;;;;;;5095324;28;20316;-63
2023/10/29 10:42:03;;;;;;;4.50;1.27;;;16.60;62.40;;;;;;5095700;28;20195;-62
2023/10/29 10:44:31;;;;;;;2.80;1.25;;;16.60;62.40;;;;;;5095725;28;20217;-61
2023/10/29 10:46:59;;;;;;;2.95;1.27;;;16.60;62.40;;;;;;5095934;28;20276;-61
2023/10/29 10:49:31;;;;;;;2.67;1.60;;;16.60;62.40;;;;;;5095157;28;20186;-60
2023/10/29 10:52:01;;;;;;;4.70;1.20;;;16.60;62.40;;;;;;5095741;28;20201;-61
2023/10/29 10:54:29;;;;;;;3.42;1.25;;;16.60;62.40;;;;;;5095367;28;20240;-60
2023/10/29 10:56:57;;;;;;;3.90;1.30;;;16.60;62.40;;;;;;5095151;28;20190;-61
2023/10/29 10:59:25;;;;;;;4.70;1.40;;;16.60;62.40;;;;;;5095412;28;20182;-60
2023/10/29 11:01:52;;;;;;;2.92;1.40;;;16.60;62.40;;;;;;5095383;28;20277;-62
2023/10/29 11:04:21;;;;;;;4.38;1.40;;;16.60;62.40;;;;;;5094614;28;20204;-60
2023/10/29 11:06:49;;;;;;;2.55;1.10;;;16.60;62.40;;;;;;5095319;28;20243;-61
2023/10/29 11:09:17;;;;;;;2.75;1.00;;;16.60;62.40;;;;;;5095308;28;20190;-60
2023/10/29 11:11:48;;;;;;;2.92;1.58;;;16.60;62.40;;;;;;5094890;28;20218;-61
2023/10/29 11:14:16;;;;;;;4.70;1.50;;;16.60;62.40;;;;;;5095037;28;20286;-61
2023/10/29 11:16:50;;;;;;;1.95;1.20;;;16.60;62.40;;;;;;5095185;28;20300;-63
2023/10/29 11:19:46;;;;;;;3.55;1.33;;;16.60;62.40;;;;;;5094456;28;20281;-62
2023/10/29 11:22:14;;;;;;;3.08;1.15;;;16.60;62.40;;;;;;5095038;28;20182;-62
2023/10/29 11:24:41;;;;;;;3.13;1.30;;;16.60;62.40;;;;;;5095132;28;20265;-61
2023/10/29 11:27:40;;;;;;;4.40;1.58;;;16.60;62.40;;;;;;5094678;28;20225;-58
2023/10/29 11:30:15;;;;;;;3.53;1.50;;;16.60;62.40;;;;;;5094882;28;20274;-61
2023/10/29 11:32:45;;;;;;;3.17;1.20;;;16.60;62.40;;;;;;5094479;28;20254;-63
2023/10/29 11:35:20;;;;;;;5.03;1.13;;;16.60;62.40;;;;;;5094481;28;20230;-61
2023/10/29 11:37:48;;;;;;;4.38;1.13;;;16.60;62.40;;;;;;5094196;28;20321;-61
2023/10/29 11:40:32;;;;;;;3.65;1.20;;;16.60;62.40;;;;;;5094563;28;20287;-61
2023/10/29 11:43:15;;;;;;;2.53;1.40;;;16.60;62.40;;;;;;5094634;28;20239;-62
2023/10/29 11:45:52;;;;;;;1.75;1.20;;;16.60;62.40;;;;;;5094386;28;20305;-62
2023/10/29 11:48:20;;;;;;;3.30;1.20;;;16.60;62.70;;;;;;5094373;28;20273;-62
2023/10/29 11:51:18;;;;;;;3.25;1.30;;;16.60;62.40;;;;;;5094554;28;20296;-59
2023/10/29 11:53:45;;;;;;;3.22;1.20;;;16.60;62.40;;;;;;5094423;28;20281;-61
2023/10/29 11:56:13;;;;;;;2.15;1.25;;;16.60;62.40;;;;;;5094108;28;20233;-61
2023/10/29 11:58:40;;;;;;;3.10;1.20;;;16.60;62.40;;;;;;5094172;28;20638;-58
2023/10/29 12:01:06;;;;;;;1.83;1.10;;;16.60;62.40;;;;;;5094372;28;20576;-61
2023/10/29 12:03:35;;;;;;;5.13;1.42;;;16.60;62.40;;;;;;5093528;28;20812;-60
2023/10/29 12:06:02;;;;;;;3.10;1.30;;;16.60;62.40;;;;;;5094238;28;20219;-61
2023/10/29 12:08:32;;;;;;;2.25;1.15;;;16.60;62.40;;;;;;5094204;28;20190;-58
2023/10/29 12:11:00;;;;;;;2.42;1.02;;;16.60;62.40;;;;;;5093818;28;20297;-61
2023/10/29 12:13:40;;;;;;;3.08;1.10;;;16.60;62.40;;;;;;5093708;28;20190;-61
2023/10/29 12:16:08;;;;;;;2.75;1.25;;;16.60;62.40;;;;;;5093847;28;20635;-60
2023/10/29 12:18:38;;;;;;;4.65;1.40;;;16.60;62.40;;;;;;5093432;28;20182;-61
2023/10/29 12:21:07;;;;;;;4.57;1.48;;;16.60;62.40;;;;;;5093707;28;20260;-62
2023/10/29 12:23:35;;;;;;;3.13;1.52;;;16.60;62.40;;;;;;5093812;28;20190;-60
2023/10/29 12:26:04;;;;;;;2.88;1.00;;;16.60;62.40;;;;;;5093471;28;20250;-59
2023/10/29 12:28:33;;;;;;;3.13;1.05;;;16.60;62.40;;;;;;5093670;28;20214;-62
2023/10/29 12:31:00;;;;;;;3.42;1.30;;;16.60;63.20;;;;;;5093412;28;20754;-60
2023/10/29 12:33:30;;;;;;;3.78;1.45;;;16.60;62.40;;;;;;5092857;28;20186;-61
2023/10/29 12:36:00;;;;;;;5.07;1.50;;;16.60;62.40;;;;;;5093338;28;20764;-60
2023/10/29 12:38:27;;;;;;;5.43;1.40;;;16.60;62.40;;;;;;5093257;28;20246;-63
2023/10/29 12:41:06;;;;;;;3.28;1.20;;;16.60;62.40;;;;;;5093301;28;20267;-62
2023/10/29 12:43:36;;;;;;;4.97;1.40;;;16.60;62.40;;;;;;5093458;28;20269;-61
2023/10/29 12:46:05;;;;;;;4.60;1.27;;;16.60;62.40;;;;;;5093198;28;20589;-62
2023/10/29 12:48:32;;;;;;;6.25;1.58;;;16.60;62.40;;;;;;5093136;28;20194;-62
2023/10/29 12:51:02;;;;;;;3.22;1.23;;;16.60;62.30;;;;;;5093405;28;20213;-59